createdAt,value
2017-07-30T00:02:23.478Z,21.25
2017-07-30T00:04:49.415Z,21.45
2017-07-30T00:07:15.355Z,21.32
2017-07-30T00:09:43.141Z,21.27
2017-07-30T00:12:09.039Z,21.22
2017-07-30T00:14:35.025Z,21.07
2017-07-30T00:17:01.814Z,21.12
2017-07-30T00:19:27.703Z,21.19
2017-07-30T00:21:53.765Z,21.02
2017-07-30T00:24:19.780Z,21.02
2017-07-30T00:26:46.364Z,21.08
2017-07-30T00:29:12.427Z,21.16
2017-07-30T00:31:38.379Z,21.25
2017-07-30T00:34:04.220Z,21.19
2017-07-30T00:36:30.220Z,21.26
2017-07-30T00:38:56.828Z,21.27
2017-07-30T00:41:22.686Z,21.30
2017-07-30T00:43:48.704Z,21.23
2017-07-30T00:46:14.551Z,21.21
2017-07-30T00:48:40.585Z,21.23
2017-07-30T00:51:06.667Z,21.17
2017-07-30T00:53:33.450Z,21.20
2017-07-30T00:55:59.505Z,21.17
2017-07-30T00:58:25.421Z,21.23
2017-07-30T01:00:51.474Z,21.22
2017-07-30T01:03:17.356Z,21.23
2017-07-30T01:05:43.349Z,21.16
2017-07-30T01:08:10.971Z,21.11
2017-07-30T01:10:36.976Z,21.14
2017-07-30T01:13:02.820Z,21.18
2017-07-30T01:15:28.739Z,21.18
2017-07-30T01:17:54.802Z,21.13
2017-07-30T01:20:20.745Z,21.07
2017-07-30T01:22:47.510Z,21.13
2017-07-30T01:25:13.412Z,20.95
2017-07-30T01:27:39.401Z,21.15
2017-07-30T01:30:05.276Z,21.13
2017-07-30T01:32:31.255Z,21.03
2017-07-30T01:34:57.393Z,21.02
2017-07-30T01:37:23.315Z,21.00
2017-07-30T01:39:49.192Z,21.01
2017-07-30T01:42:15.240Z,20.97
2017-07-30T01:44:41.624Z,20.86
2017-07-30T01:47:08.205Z,20.93
2017-07-30T01:49:34.095Z,20.93
2017-07-30T01:52:00.051Z,20.93
2017-07-30T01:54:25.912Z,20.91
2017-07-30T01:56:52.024Z,20.90
2017-07-30T01:59:17.881Z,20.90
2017-07-30T02:01:43.807Z,20.80
2017-07-30T02:04:09.718Z,20.91
2017-07-30T02:06:35.749Z,20.98
2017-07-30T02:09:03.204Z,20.93
2017-07-30T02:11:29.100Z,20.83
2017-07-30T02:13:55.091Z,20.78
2017-07-30T02:16:21.133Z,20.80
2017-07-30T02:18:47.778Z,20.77
2017-07-30T02:21:14.282Z,20.72
2017-07-30T02:23:40.278Z,20.67
2017-07-30T02:26:06.206Z,20.65
2017-07-30T02:30:58.006Z,20.64
2017-07-30T02:33:24.002Z,20.65
2017-07-30T02:35:49.892Z,20.50
2017-07-30T02:38:15.876Z,20.68
2017-07-30T02:40:41.738Z,20.73
2017-07-30T02:43:08.500Z,20.74
2017-07-30T02:45:34.510Z,20.76
2017-07-30T02:48:00.447Z,20.77
2017-07-30T02:50:26.451Z,20.72
2017-07-30T02:52:52.326Z,20.71
2017-07-30T02:55:18.284Z,20.70
2017-07-30T02:57:44.273Z,20.80
2017-07-30T03:00:10.167Z,20.85
2017-07-30T03:02:36.622Z,20.90
2017-07-30T03:05:02.458Z,20.90
2017-07-30T03:07:28.437Z,20.92
2017-07-30T03:09:54.315Z,20.94
2017-07-30T03:12:21.133Z,20.95
2017-07-30T03:14:47.166Z,20.90
2017-07-30T03:17:13.149Z,20.86
2017-07-30T03:19:39.167Z,20.99
2017-07-30T03:22:05.081Z,20.90
2017-07-30T03:24:31.010Z,20.90
2017-07-30T03:26:56.997Z,20.78
2017-07-30T03:29:22.909Z,20.83
2017-07-30T03:31:48.869Z,20.72
2017-07-30T03:34:15.817Z,20.58
2017-07-30T03:36:41.740Z,20.36
2017-07-30T03:39:07.775Z,20.29
2017-07-30T03:41:33.626Z,20.23
2017-07-30T03:43:59.568Z,20.20
2017-07-30T03:46:26.380Z,20.17
2017-07-30T03:48:52.293Z,20.27
2017-07-30T03:51:18.245Z,20.32
2017-07-30T03:53:44.160Z,20.24
2017-07-30T03:56:10.087Z,20.33
2017-07-30T03:58:35.920Z,20.19
2017-07-30T04:01:01.758Z,20.16
2017-07-30T04:03:27.582Z,20.17
2017-07-30T04:05:53.377Z,20.01
2017-07-30T04:08:19.178Z,20.16
2017-07-30T04:10:45.128Z,20.11
2017-07-30T04:13:11.030Z,20.17
2017-07-30T04:15:36.868Z,20.26
2017-07-30T04:18:02.862Z,20.18
2017-07-30T04:20:28.689Z,20.28
2017-07-30T04:22:54.518Z,20.25
2017-07-30T04:25:20.354Z,20.27
2017-07-30T04:27:46.197Z,20.28
2017-07-30T04:30:12.061Z,20.53
2017-07-30T04:32:37.885Z,20.48
2017-07-30T04:35:03.757Z,20.48
2017-07-30T04:37:29.713Z,20.48
2017-07-30T04:39:55.537Z,20.61
2017-07-30T04:42:21.317Z,20.73
2017-07-30T04:44:47.133Z,20.80
2017-07-30T04:47:12.933Z,20.73
2017-07-30T04:49:38.772Z,20.93
2017-07-30T04:52:04.621Z,20.80
2017-07-30T04:54:30.421Z,20.89
2017-07-30T04:56:56.313Z,20.75
2017-07-30T04:59:22.309Z,20.91
2017-07-30T05:01:48.108Z,20.87
2017-07-30T05:04:13.943Z,20.84
2017-07-30T05:06:39.770Z,20.89
2017-07-30T05:09:05.586Z,20.95
2017-07-30T05:11:31.374Z,20.95
2017-07-30T05:13:57.210Z,20.87
2017-07-30T05:16:23.017Z,20.90
2017-07-30T05:18:48.792Z,21.18
2017-07-30T05:21:14.694Z,20.91
2017-07-30T05:23:40.690Z,21.35
2017-07-30T05:26:06.525Z,21.35
2017-07-30T05:28:32.322Z,21.50
2017-07-30T05:30:58.166Z,21.58
2017-07-30T05:33:24.045Z,21.59
2017-07-30T05:35:49.927Z,21.67
2017-07-30T05:38:15.849Z,21.69
2017-07-30T05:40:41.633Z,21.81
2017-07-30T05:43:07.475Z,21.84
2017-07-30T05:45:40.627Z,21.93
2017-07-30T05:48:06.609Z,21.96
2017-07-30T05:50:32.647Z,21.99
2017-07-30T05:52:58.560Z,22.07
2017-07-30T05:55:24.405Z,22.30
2017-07-30T05:57:50.273Z,22.26
2017-07-30T06:00:16.833Z,22.53
2017-07-30T06:02:42.768Z,22.79
2017-07-30T06:05:08.777Z,22.98
2017-07-30T06:07:34.877Z,23.18
2017-07-30T06:10:00.789Z,23.36
2017-07-30T06:12:26.770Z,23.25
2017-07-30T06:14:52.633Z,23.57
2017-07-30T06:17:18.643Z,23.72
2017-07-30T06:19:44.704Z,23.76
2017-07-30T06:24:43.929Z,24.08
2017-07-30T06:27:10.059Z,24.07
2017-07-30T06:29:35.940Z,24.13
2017-07-30T06:32:02.530Z,24.34
2017-07-30T06:34:28.463Z,24.65
2017-07-30T06:36:54.698Z,24.49
2017-07-30T06:39:20.694Z,24.53
2017-07-30T06:41:46.784Z,24.72
2017-07-30T06:44:12.687Z,24.80
2017-07-30T06:46:39.150Z,24.86
2017-07-30T06:49:05.285Z,24.82
2017-07-30T06:51:31.211Z,24.87
2017-07-30T06:53:57.101Z,24.82
2017-07-30T06:56:23.102Z,25.15
2017-07-30T06:58:49.034Z,25.29
2017-07-30T07:01:14.986Z,25.29
2017-07-30T07:03:40.893Z,25.15
2017-07-30T07:06:06.837Z,25.14
2017-07-30T07:08:32.861Z,25.31
2017-07-30T07:10:58.815Z,25.33
2017-07-30T07:13:24.795Z,25.54
2017-07-30T07:15:50.686Z,25.70
2017-07-30T07:18:17.386Z,25.89
2017-07-30T07:20:43.342Z,25.91
2017-07-30T07:23:09.866Z,25.87
2017-07-30T07:25:35.847Z,26.07
2017-07-30T07:28:01.965Z,26.07
2017-07-30T07:30:27.835Z,26.10
2017-07-30T07:32:53.783Z,26.32
2017-07-30T07:35:19.747Z,26.41
2017-07-30T07:37:45.651Z,26.36
2017-07-30T07:40:11.537Z,26.13
2017-07-30T07:42:37.517Z,26.22
2017-07-30T07:45:03.456Z,26.48
2017-07-30T07:47:29.315Z,26.66
2017-07-30T07:49:55.239Z,26.66
2017-07-30T07:52:21.211Z,26.95
2017-07-30T07:54:47.114Z,27.17
2017-07-30T07:57:13.100Z,27.28
2017-07-30T07:59:39.450Z,27.14
2017-07-30T08:02:05.355Z,26.89
2017-07-30T08:04:32.104Z,27.00
2017-07-30T08:06:58.027Z,27.22
2017-07-30T08:09:23.954Z,27.41
2017-07-30T08:11:49.845Z,27.49
2017-07-30T08:14:15.867Z,27.58
2017-07-30T08:16:41.895Z,27.68
2017-07-30T08:19:07.802Z,27.72
2017-07-30T08:21:33.994Z,27.82
2017-07-30T08:24:00.670Z,27.99
2017-07-30T08:26:26.517Z,27.94
2017-07-30T08:28:53.205Z,28.29
2017-07-30T08:31:19.091Z,28.52
2017-07-30T08:33:44.977Z,28.37
2017-07-30T08:36:11.164Z,28.56
2017-07-30T08:38:37.857Z,29.03
2017-07-30T08:41:03.774Z,29.48
2017-07-30T08:43:29.868Z,28.79
2017-07-30T08:45:55.737Z,29.26
2017-07-30T08:48:22.761Z,29.23
2017-07-30T08:50:48.574Z,29.15
2017-07-30T08:53:14.393Z,29.14
2017-07-30T08:55:40.295Z,29.34
2017-07-30T08:58:06.269Z,29.07
2017-07-30T09:00:32.169Z,29.10
2017-07-30T09:02:58.113Z,29.04
2017-07-30T09:05:24.044Z,29.18
2017-07-30T09:07:50.915Z,29.15
2017-07-30T09:10:16.784Z,29.37
2017-07-30T09:12:42.774Z,29.18
2017-07-30T09:15:08.636Z,29.73
2017-07-30T09:17:34.638Z,29.55
2017-07-30T09:20:00.534Z,29.52
2017-07-30T09:22:26.432Z,29.61
2017-07-30T09:24:52.296Z,29.53
2017-07-30T09:27:18.114Z,29.51
2017-07-30T09:29:44.195Z,29.58
2017-07-30T09:32:10.116Z,29.24
2017-07-30T09:34:35.956Z,29.23
2017-07-30T09:37:02.570Z,29.37
2017-07-30T09:39:28.567Z,29.35
2017-07-30T09:41:54.375Z,29.29
2017-07-30T09:44:20.265Z,29.32
2017-07-30T09:46:46.098Z,29.58
2017-07-30T09:49:11.937Z,29.61
2017-07-30T09:51:37.906Z,29.87
2017-07-30T09:54:03.770Z,29.79
2017-07-30T09:56:30.532Z,29.83
2017-07-30T09:58:56.402Z,29.86
2017-07-30T10:01:22.259Z,29.66
2017-07-30T10:03:48.151Z,29.87
2017-07-30T10:06:14.049Z,29.75
2017-07-30T10:08:39.952Z,29.67
2017-07-30T10:11:05.994Z,29.67
2017-07-30T10:13:31.941Z,29.91
2017-07-30T10:15:57.835Z,29.68
2017-07-30T10:18:23.744Z,29.80
2017-07-30T10:20:50.695Z,29.50
2017-07-30T10:23:16.699Z,29.99
2017-07-30T10:25:42.701Z,30.00
2017-07-30T10:28:08.734Z,30.10
2017-07-30T10:30:34.811Z,30.20
2017-07-30T10:33:00.779Z,30.36
2017-07-30T10:35:26.645Z,30.34
2017-07-30T10:37:52.623Z,30.51
2017-07-30T10:40:18.635Z,30.64
2017-07-30T10:42:44.518Z,31.02
2017-07-30T10:45:11.266Z,31.58
2017-07-30T10:47:37.231Z,31.76
2017-07-30T10:50:03.172Z,32.14
2017-07-30T10:52:29.226Z,31.75
2017-07-30T10:54:55.311Z,31.50
2017-07-30T10:57:23.089Z,32.40
2017-07-30T10:59:49.028Z,33.05
2017-07-30T11:02:14.967Z,33.73
2017-07-30T11:04:40.937Z,33.73
2017-07-30T11:07:06.849Z,33.83
2017-07-30T11:09:33.532Z,33.45
2017-07-30T11:11:59.402Z,32.84
2017-07-30T11:14:25.396Z,32.03
2017-07-30T11:16:51.362Z,32.84
2017-07-30T11:19:17.351Z,32.18
2017-07-30T11:21:44.190Z,31.67
2017-07-30T11:24:10.278Z,31.44
2017-07-30T11:26:37.246Z,31.16
2017-07-30T11:29:03.163Z,31.21
2017-07-30T11:31:29.118Z,30.96
2017-07-30T11:33:55.058Z,30.82
2017-07-30T11:36:20.926Z,30.76
2017-07-30T11:38:46.991Z,30.28
2017-07-30T11:41:12.976Z,30.00
2017-07-30T11:43:38.943Z,30.00
2017-07-30T11:46:04.849Z,29.82
2017-07-30T11:48:30.813Z,29.76
2017-07-30T11:50:56.927Z,29.61
2017-07-30T11:53:22.919Z,29.51
2017-07-30T11:55:48.792Z,29.58
2017-07-30T11:58:14.676Z,29.40
2017-07-30T12:00:40.523Z,29.50
2017-07-30T12:03:07.438Z,29.60
2017-07-30T12:05:33.326Z,29.33
2017-07-30T12:07:59.157Z,28.88
2017-07-30T12:10:25.047Z,28.90
2017-07-30T12:12:51.033Z,29.92
2017-07-30T12:15:17.830Z,30.25
2017-07-30T12:17:43.645Z,31.45
2017-07-30T12:20:09.550Z,31.58
2017-07-30T12:22:35.509Z,32.26
2017-07-30T12:25:01.332Z,32.38
2017-07-30T12:27:27.253Z,32.57
2017-07-30T12:29:53.118Z,32.89
2017-07-30T12:32:19.006Z,31.66
2017-07-30T12:34:44.892Z,32.73
2017-07-30T12:37:10.763Z,32.82
2017-07-30T12:39:36.569Z,32.70
2017-07-30T12:42:02.464Z,31.58
2017-07-30T12:44:28.363Z,30.95
2017-07-30T12:46:54.252Z,30.34
2017-07-30T12:49:20.107Z,29.97
2017-07-30T12:51:46.012Z,29.40
2017-07-30T12:54:11.850Z,29.28
2017-07-30T12:56:37.734Z,29.18
2017-07-30T12:59:03.703Z,29.21
2017-07-30T13:01:29.588Z,28.97
2017-07-30T13:03:55.454Z,29.08
2017-07-30T13:06:21.481Z,28.77
2017-07-30T13:08:47.372Z,29.12
2017-07-30T13:11:14.027Z,28.67
2017-07-30T13:13:41.536Z,28.36
2017-07-30T13:16:07.388Z,28.01
2017-07-30T13:18:33.258Z,27.99
2017-07-30T13:20:59.227Z,28.00
2017-07-30T13:23:25.080Z,28.21
2017-07-30T13:25:51.034Z,28.83
2017-07-30T13:28:16.858Z,29.13
2017-07-30T13:30:42.712Z,29.86
2017-07-30T13:33:08.706Z,29.57
2017-07-30T13:35:34.556Z,29.24
2017-07-30T13:38:00.442Z,29.01
2017-07-30T13:40:26.437Z,29.62
2017-07-30T13:42:52.377Z,29.07
2017-07-30T13:45:18.378Z,27.98
2017-07-30T13:47:44.986Z,27.95
2017-07-30T13:50:10.879Z,27.04
2017-07-30T13:52:36.812Z,27.26
2017-07-30T13:55:02.732Z,27.92
2017-07-30T13:57:28.633Z,28.52
2017-07-30T13:59:54.599Z,27.98
2017-07-30T14:02:20.712Z,27.04
2017-07-30T14:04:46.650Z,27.44
2017-07-30T14:07:12.614Z,28.75
2017-07-30T14:09:38.539Z,29.22
2017-07-30T14:12:04.656Z,29.39
2017-07-30T14:14:30.555Z,28.77
2017-07-30T14:16:56.603Z,28.25
2017-07-30T14:19:22.558Z,28.65
2017-07-30T14:21:48.512Z,28.27
2017-07-30T14:24:14.591Z,28.65
2017-07-30T14:26:40.508Z,28.01
2017-07-30T14:29:06.652Z,27.57
2017-07-30T14:31:32.662Z,28.35
2017-07-30T14:33:58.613Z,28.49
2017-07-30T14:36:24.522Z,28.37
2017-07-30T14:38:50.487Z,27.90
2017-07-30T14:41:16.452Z,28.01
2017-07-30T14:43:42.385Z,27.77
2017-07-30T14:46:08.309Z,27.78
2017-07-30T14:48:34.238Z,27.98
2017-07-30T14:51:00.115Z,27.74
2017-07-30T14:53:26.140Z,28.95
2017-07-30T14:55:52.111Z,28.07
2017-07-30T14:58:18.041Z,27.80
2017-07-30T15:00:43.989Z,27.40
2017-07-30T15:03:09.964Z,27.73
2017-07-30T15:05:35.921Z,27.97
2017-07-30T15:08:01.960Z,27.67
2017-07-30T15:10:27.844Z,27.85
2017-07-30T15:12:53.954Z,28.08
2017-07-30T15:15:19.871Z,27.91
2017-07-30T15:17:45.803Z,28.83
2017-07-30T15:20:11.904Z,29.25
2017-07-30T15:22:37.762Z,29.53
2017-07-30T15:25:03.724Z,29.76
2017-07-30T15:27:30.220Z,30.13
2017-07-30T15:29:56.142Z,29.40
2017-07-30T15:32:22.091Z,29.89
2017-07-30T15:34:47.961Z,30.50
2017-07-30T15:37:13.842Z,30.49
2017-07-30T15:39:39.742Z,29.91
2017-07-30T15:42:05.616Z,29.83
2017-07-30T15:44:31.505Z,29.82
2017-07-30T15:46:57.464Z,29.35
2017-07-30T15:49:23.356Z,28.89
2017-07-30T15:51:49.395Z,29.48
2017-07-30T15:54:15.326Z,29.55
2017-07-30T15:56:41.199Z,29.79
2017-07-30T15:59:07.155Z,29.62
2017-07-30T16:01:33.136Z,29.76
2017-07-30T16:03:59.147Z,29.36
2017-07-30T16:06:25.105Z,28.99
2017-07-30T16:08:51.553Z,29.29
2017-07-30T16:11:17.621Z,29.38
2017-07-30T16:13:43.578Z,29.62
2017-07-30T16:16:09.648Z,29.98
2017-07-30T16:18:35.612Z,29.52
2017-07-30T16:21:01.553Z,30.17
2017-07-30T16:23:27.568Z,29.44
2017-07-30T16:25:53.555Z,29.18
2017-07-30T16:28:19.530Z,29.21
2017-07-30T16:30:45.578Z,29.49
2017-07-30T16:33:11.549Z,29.15
2017-07-30T16:35:38.191Z,29.11
2017-07-30T16:38:05.235Z,29.23
2017-07-30T16:40:31.228Z,28.88
2017-07-30T16:42:57.198Z,28.98
2017-07-30T16:45:23.249Z,28.89
2017-07-30T16:47:49.269Z,29.19
2017-07-30T16:50:15.208Z,29.42
2017-07-30T16:52:41.132Z,29.18
2017-07-30T16:55:06.999Z,29.13
2017-07-30T16:57:33.835Z,29.03
2017-07-30T16:59:59.670Z,28.63
2017-07-30T17:02:25.516Z,28.80
2017-07-30T17:04:51.571Z,28.67
2017-07-30T17:07:17.553Z,28.58
2017-07-30T17:09:43.726Z,28.34
2017-07-30T17:12:09.552Z,28.39
2017-07-30T17:14:35.376Z,28.06
2017-07-30T17:17:01.257Z,27.86
2017-07-30T17:19:27.296Z,27.78
2017-07-30T17:21:53.322Z,27.55
2017-07-30T17:24:20.958Z,27.53
2017-07-30T17:26:47.301Z,27.05
2017-07-30T17:29:13.128Z,26.75
2017-07-30T17:31:39.009Z,26.55
2017-07-30T17:34:04.843Z,26.53
2017-07-30T17:36:30.664Z,26.58
2017-07-30T17:38:56.468Z,26.44
2017-07-30T17:41:22.313Z,26.32
2017-07-30T17:43:48.157Z,26.16
2017-07-30T17:46:14.068Z,25.95
2017-07-30T17:48:39.933Z,25.90
2017-07-30T17:51:06.525Z,25.70
2017-07-30T17:53:32.351Z,25.30
2017-07-30T17:55:59.019Z,25.45
2017-07-30T17:58:25.634Z,25.21
2017-07-30T18:00:51.446Z,25.40
2017-07-30T18:03:20.588Z,25.29
2017-07-30T18:05:46.641Z,25.51
2017-07-30T18:08:12.501Z,25.28
2017-07-30T18:10:39.050Z,25.23
2017-07-30T18:13:05.666Z,25.57
2017-07-30T18:15:32.092Z,25.65
2017-07-30T18:17:58.544Z,25.65
2017-07-30T18:20:24.341Z,25.69
2017-07-30T18:22:54.764Z,25.48
2017-07-30T18:25:20.656Z,25.62
2017-07-30T18:27:48.162Z,25.44
2017-07-30T18:30:13.982Z,25.40
2017-07-30T18:32:39.887Z,25.33
2017-07-30T18:35:05.722Z,24.85
2017-07-30T18:37:31.648Z,24.80
2017-07-30T18:39:57.510Z,24.57
2017-07-30T18:42:23.401Z,24.42
2017-07-30T18:44:49.309Z,24.35
2017-07-30T18:47:15.203Z,24.25
2017-07-30T18:49:41.056Z,24.32
2017-07-30T18:52:06.951Z,24.19
2017-07-30T18:54:33.188Z,23.81
2017-07-30T18:56:59.040Z,23.76
2017-07-30T18:59:24.850Z,23.64
2017-07-30T19:01:51.298Z,23.57
2017-07-30T19:04:17.151Z,23.43
2017-07-30T19:06:43.322Z,23.33
2017-07-30T19:09:10.781Z,23.40
2017-07-30T19:11:36.589Z,23.27
2017-07-30T19:14:02.430Z,23.18
2017-07-30T19:16:28.230Z,23.24
2017-07-30T19:18:54.075Z,23.36
2017-07-30T19:21:19.938Z,23.22
2017-07-30T19:23:49.587Z,23.19
2017-07-30T19:26:15.420Z,23.12
2017-07-30T19:28:41.297Z,23.09
2017-07-30T19:31:07.102Z,23.10
2017-07-30T19:33:32.933Z,23.06
2017-07-30T19:35:58.775Z,23.02
2017-07-30T19:38:24.649Z,23.09
2017-07-30T19:40:50.583Z,23.04
2017-07-30T19:43:16.448Z,23.07
2017-07-30T19:45:42.280Z,22.97
2017-07-30T19:48:09.040Z,23.08
2017-07-30T19:50:35.757Z,23.00
2017-07-30T19:53:01.745Z,22.89
2017-07-30T19:55:27.584Z,23.03
2017-07-30T19:57:53.432Z,22.69
2017-07-30T20:00:20.231Z,22.79
2017-07-30T20:02:46.273Z,22.89
2017-07-30T20:05:12.120Z,23.06
2017-07-30T20:07:38.138Z,23.04
2017-07-30T20:10:04.063Z,23.17
2017-07-30T20:12:29.914Z,22.97
2017-07-30T20:14:55.795Z,22.74
2017-07-30T20:17:21.862Z,22.84
2017-07-30T20:19:47.801Z,22.76
2017-07-30T20:22:13.628Z,22.90
2017-07-30T20:24:39.494Z,22.77
2017-07-30T20:27:05.431Z,22.54
2017-07-30T20:29:31.331Z,22.67
2017-07-30T20:31:57.908Z,22.78
2017-07-30T20:34:23.791Z,22.82
2017-07-30T20:36:49.756Z,22.75
2017-07-30T20:39:15.617Z,22.51
2017-07-30T20:41:41.447Z,22.53
2017-07-30T20:44:07.411Z,22.40
2017-07-30T20:46:33.324Z,22.48
2017-07-30T20:48:59.224Z,22.38
2017-07-30T20:51:25.080Z,22.26
2017-07-30T20:53:51.926Z,22.44
2017-07-30T20:56:17.808Z,22.35
2017-07-30T20:58:43.744Z,22.32
2017-07-30T21:01:09.581Z,22.18
2017-07-30T21:03:35.412Z,22.36
2017-07-30T21:06:01.331Z,22.22
2017-07-30T21:08:27.268Z,22.31
2017-07-30T21:10:53.108Z,22.12
2017-07-30T21:13:18.959Z,22.16
2017-07-30T21:15:45.543Z,22.13
2017-07-30T21:18:11.428Z,22.23
2017-07-30T21:20:37.957Z,22.16
2017-07-30T21:23:03.811Z,22.20
2017-07-30T21:25:29.735Z,22.26
2017-07-30T21:27:55.635Z,22.27
2017-07-30T21:30:21.487Z,22.03
2017-07-30T21:32:47.372Z,22.12
2017-07-30T21:35:13.280Z,22.10
2017-07-30T21:37:41.134Z,22.22
2017-07-30T21:40:07.050Z,22.31
2017-07-30T21:42:32.880Z,22.32
2017-07-30T21:44:58.828Z,22.12
2017-07-30T21:47:24.675Z,21.98
2017-07-30T21:49:50.575Z,22.06
2017-07-30T21:52:16.497Z,21.91
2017-07-30T21:54:42.342Z,21.97
2017-07-30T21:57:08.435Z,21.92
2017-07-30T21:59:36.170Z,21.83
2017-07-30T22:02:02.066Z,22.01
2017-07-30T22:04:27.894Z,21.75
2017-07-30T22:06:53.714Z,21.98
2017-07-30T22:09:19.562Z,21.98
2017-07-30T22:11:45.505Z,22.02
2017-07-30T22:14:11.355Z,21.87
2017-07-30T22:16:37.236Z,21.89
2017-07-30T22:19:03.767Z,21.78
2017-07-30T22:21:30.463Z,21.78
2017-07-30T22:23:56.305Z,21.52
2017-07-30T22:26:22.869Z,21.35
2017-07-30T22:28:48.751Z,21.41
2017-07-30T22:31:14.609Z,21.53
2017-07-30T22:33:40.613Z,21.54
2017-07-30T22:36:07.437Z,21.33
2017-07-30T22:38:33.275Z,21.31
2017-07-30T22:40:59.849Z,21.25
2017-07-30T22:43:25.767Z,21.19
2017-07-30T22:45:51.720Z,21.43
2017-07-30T22:48:17.558Z,21.53
2017-07-30T22:50:43.421Z,21.50
2017-07-30T22:53:10.985Z,21.61
2017-07-30T22:55:36.859Z,21.54
2017-07-30T22:58:02.688Z,21.66
2017-07-30T23:00:28.745Z,21.61
2017-07-30T23:02:54.710Z,21.34
2017-07-30T23:05:20.591Z,21.22
2017-07-30T23:07:46.516Z,21.12
2017-07-30T23:10:13.157Z,20.92
2017-07-30T23:12:39.600Z,21.01
2017-07-30T23:15:05.476Z,21.19
2017-07-30T23:17:32.054Z,21.39
2017-07-30T23:19:57.924Z,21.32
2017-07-30T23:22:23.751Z,21.15
2017-07-30T23:24:49.824Z,21.19
2017-07-30T23:27:16.765Z,21.10
2017-07-30T23:29:42.595Z,21.18
2017-07-30T23:32:08.460Z,21.19
2017-07-30T23:34:34.499Z,21.21
2017-07-30T23:37:00.526Z,21.20
2017-07-30T23:39:26.392Z,20.94
2017-07-30T23:41:52.379Z,20.95
2017-07-30T23:44:18.368Z,21.00
2017-07-30T23:46:44.184Z,20.93
2017-07-30T23:49:09.989Z,20.85
2017-07-30T23:51:35.860Z,20.99
2017-07-30T23:54:01.685Z,20.80
2017-07-30T23:56:27.615Z,20.81
2017-07-30T23:58:53.492Z,20.71
